MDT,Max TemperatureF,Mean TemperatureF,Min TemperatureF,Max Dew PointF,MeanDew PointF,Min DewpointF,Max Humidity, Mean Humidity, Min Humidity, Max Sea Level PressureIn, Mean Sea Level PressureIn, Min Sea Level PressureIn, Max VisibilityMiles, Mean VisibilityMiles, Min VisibilityMiles, Max Wind SpeedMPH, Mean Wind SpeedMPH, Max Gust SpeedMPH,PrecipitationIn, CloudCover, Events, WindDirDegrees
2013-10-1,73,54,35,35,31,23,85,51,16,30.06,30.00,29.95,10,10,10,12,4,17,0.00,0,,42
2013-10-2,71,51,31,32,28,21,82,49,16,30.08,29.99,29.91,10,10,10,15,4,18,0.00,0,,337
2013-10-3,67,50,32,32,29,26,76,50,24,29.97,29.84,29.66,10,10,10,20,7,26,0.00,1,,213
2013-10-4,52,40,28,31,19,10,69,44,19,30.18,29.98,29.70,10,10,10,29,13,38,0.00,1,,251
2013-10-5,55,39,22,23,20,16,75,51,26,30.38,30.31,30.20,10,10,10,14,5,20,0.00,0,,133
2013-10-6,63,43,23,28,22,19,81,51,21,30.42,30.34,30.24,10,10,10,12,4,15,0.00,0,,338
2013-10-7,70,49,27,31,25,20,85,50,15,30.32,30.20,30.06,10,10,10,13,3,16,0.00,0,,347
2013-10-8,69,51,32,32,28,25,78,49,20,30.07,29.95,29.84,10,10,10,18,5,24,0.00,1,,32
2013-10-9,67,50,33,38,29,19,82,49,16,29.99,29.87,29.80,10,10,10,35,7,49,T,3,Thunderstorm,78
2013-10-10,54,43,32,43,37,32,100,79,43,30.04,29.86,29.64,10,6,0,35,7,46,0.75,8,Rain-Snow-Thunderstorm,214
2013-10-11,49,41,32,37,35,30,100,83,66,30.19,30.10,30.05,10,10,6,8,2,9,0.00,5,,65
2013-10-12,57,43,28,35,32,28,100,69,38,30.25,30.17,30.10,10,10,10,10,2,15,0.00,0,,66
2013-10-13,64,49,34,46,38,31,92,66,39,30.17,30.02,29.89,10,10,9,16,5,21,0.01,3,Rain-Thunderstorm,134
2013-10-14,54,42,30,32,29,26,89,62,35,30.15,30.03,29.91,10,10,10,22,8,28,0.00,1,,249
2013-10-15,54,40,25,31,25,22,92,61,30,30.21,30.10,30.02,10,10,10,22,5,30,T,4,,340
2013-10-16,52,41,29,33,27,21,100,66,32,30.20,30.13,30.04,10,10,10,20,6,24,0.00,2,,215
2013-10-17,55,39,23,26,21,14,92,57,22,30.23,30.12,30.00,10,10,10,17,5,23,0.00,0,,262
2013-10-18,57,40,22,23,17,11,88,53,18,30.20,30.09,30.01,10,10,10,16,5,22,0.00,0,,248
2013-10-19,58,40,21,24,19,15,77,50,23,30.30,30.19,30.10,10,10,10,17,5,22,0.00,0,,30
2013-10-20,63,43,22,25,21,17,88,54,19,30.14,30.02,29.88,10,10,10,25,8,31,0.00,0,,302
2013-10-21,60,43,26,24,21,19,75,48,20,30.21,30.10,29.96,10,10,10,16,6,22,0.00,0,,6
2013-10-22,62,43,23,25,21,19,81,51,20,30.35,30.25,30.20,10,10,10,10,4,15,0.00,0,,55
2013-10-23,66,45,24,27,23,18,88,52,16,30.32,30.20,30.10,10,10,10,10,3,13,0.00,0,,329
2013-10-24,67,47,27,32,25,22,75,47,19,30.27,30.17,30.09,10,10,10,21,5,25,0.00,2,,224
2013-10-25,59,50,40,42,39,34,96,70,44,30.26,30.18,30.09,10,10,4,20,6,25,0.12,4,Rain-Thunderstorm,72
2013-10-26,61,48,34,40,36,31,100,66,32,30.35,30.27,30.19,10,10,10,16,4,22,0.01,2,,310
2013-10-27,60,45,29,36,32,27,92,60,27,30.25,30.09,29.89,10,10,10,10,2,14,0.00,1,,53
2013-10-28,61,49,36,33,26,17,76,49,21,29.97,29.86,29.79,10,10,10,22,9,28,0.00,1,,152
2013-10-29,53,42,31,37,30,21,92,67,42,30.03,29.93,29.82,10,8,1,24,7,33,0.18,5,Rain-Snow,241
2013-10-30,41,34,27,35,30,26,100,85,70,30.09,30.00,29.94,10,9,2,16,4,21,0.04,5,Rain-Snow,292
2013-10-31,46,34,22,29,24,20,100,75,49,30.21,30.13,30.04,10,8,1,18,6,24,0.00,1,,337